Time;durP1;ratioP1;P1;durP2;ratioP2;P2;SDS_P1;SDS_P2;PMS_P1;PMS_P2;Temp;Humidity;BMP_temperature;BMP_pressure;BME280_temperature;BME280_humidity;BME280_pressure;Samples;Min_cycle;Max_cycle;Signal;HPM_P1;HPM_P2
2022/04/27 09:02:45;;;;;;;6.60;5.75;;;18.60;96.60;;;;;;5113724;27;20313;-63
2022/04/27 09:05:15;;;;;;;10.38;6.00;;;17.70;97.30;;;;;;5070485;28;20473;-65
2022/04/27 09:07:43;;;;;;;8.90;6.15;;;17.50;98.70;;;;;;5070334;28;20163;-64
2022/04/27 09:10:13;;;;;;;6.53;5.63;;;17.60;98.90;;;;;;5071273;28;20017;-64
2022/04/27 09:12:50;;;;;;;7.35;6.28;;;17.00;98.90;;;;;;5070544;28;20041;-65
2022/04/27 09:15:18;;;;;;;7.97;6.00;;;16.30;99.90;;;;;;5071219;28;20029;-64
2022/04/27 09:20:50;;;;;;;9.07;5.88;;;15.80;99.90;;;;;;5070487;28;20039;-64
2022/04/27 09:23:45;;;;;;;8.15;5.97;;;15.20;99.90;;;;;;5068196;28;20088;-64
2022/04/27 09:26:22;;;;;;;8.88;5.93;;;14.60;99.90;;;;;;5070433;28;20041;-65
2022/04/27 09:28:49;;;;;;;6.57;5.43;;;14.50;99.90;;;;;;5071134;28;20472;-65
2022/04/27 09:31:27;;;;;;;6.28;5.38;;;14.60;99.90;;;;;;5070589;28;20039;-66
2022/04/27 09:34:02;;;;;;;10.18;4.60;;;15.90;99.90;;;;;;5069657;28;20532;-66
2022/04/27 09:36:29;;;;;;;5.22;3.90;;;17.30;99.90;;;;;;5068612;28;20117;-66
2022/04/27 09:38:55;;;;;;;;;;;18.00;95.60;;;;;;5070400;28;20047;-68
2022/04/27 09:41:45;;;;;;;4.07;3.67;;;18.90;95.30;;;;;;5072526;28;19914;-66
2022/04/27 09:44:34;;;;;;;4.90;4.00;;;21.20;92.20;;;;;;5073992;28;20025;-65
2022/04/27 09:47:03;;;;;;;4.78;3.88;;;23.30;83.30;;;;;;5067972;28;20020;-66
2022/04/27 09:49:32;;;;;;;5.57;4.78;;;22.90;82.30;;;;;;5068307;28;20108;-65
2022/04/27 09:52:02;;;;;;;4.38;3.97;;;22.10;81.90;;;;;;5069264;28;20450;-65
2022/04/27 09:54:29;;;;;;;3.97;3.35;;;21.50;83.70;;;;;;5069118;28;20095;-65
2022/04/27 09:57:00;;;;;;;5.00;3.25;;;20.70;84.50;;;;;;5069090;28;20474;-65
2022/04/27 09:59:29;;;;;;;4.97;2.92;;;22.30;80.90;;;;;;5067601;28;20120;-64
2022/04/27 10:02:00;;;;;;;4.28;3.22;;;22.20;80.80;;;;;;5068814;28;20078;-64
2022/04/27 10:04:28;;;;;;;4.30;3.60;;;21.90;79.20;;;;;;5069077;28;20049;-65
2022/04/27 10:06:58;;;;;;;3.70;2.58;;;22.20;78.50;;;;;;5069489;28;20045;-65
2022/04/27 10:09:28;;;;;;;6.68;4.30;;;23.60;77.30;;;;;;5068910;28;20138;-67
2022/04/27 10:12:03;;;;;;;3.35;2.80;;;24.80;73.10;;;;;;5068449;28;20033;-67
2022/04/27 10:14:29;;;;;;;3.20;2.90;;;25.30;70.00;;;;;;5053987;28;20037;-65
2022/04/27 10:16:56;;;;;;;3.05;2.75;;;23.80;71.90;;;;;;5055654;28;20040;-66
2022/04/27 10:19:22;;;;;;;3.53;2.90;;;24.30;73.30;;;;;;5055568;28;20017;-65
2022/04/27 10:21:59;;;;;;;3.17;2.88;;;24.70;70.60;;;;;;5055431;28;20051;-66
2022/04/27 10:24:51;;;;;;;5.55;2.60;;;25.40;70.90;;;;;;5053552;28;20478;-66
2022/04/27 10:27:41;;;;;;;3.92;2.78;;;24.00;68.30;;;;;;5045477;28;20045;-66
2022/04/27 10:30:09;;;;;;;3.30;3.00;;;22.90;70.10;;;;;;5055243;28;20099;-66
2022/04/27 10:32:49;;;;;;;4.13;3.20;;;21.40;72.90;;;;;;5055349;28;20389;-66
2022/04/27 10:35:25;;;;;;;3.50;3.17;;;21.50;74.00;;;;;;5057123;28;20028;-66
2022/04/27 10:37:57;;;;;;;;;;;21.80;73.70;;;;;;5057089;28;20021;-66
2022/04/27 10:40:26;;;;;;;6.32;3.40;;;22.20;73.10;;;;;;5057153;28;20370;-66
2022/04/27 10:42:52;;;;;;;3.38;3.00;;;22.70;72.30;;;;;;5056655;28;20105;-67
2022/04/27 10:45:23;;;;;;;;;;;22.40;72.30;;;;;;5056946;28;20028;-65
2022/04/27 10:47:50;;;;;;;3.40;3.08;;;22.70;71.10;;;;;;5056176;28;19912;-66
2022/04/27 10:50:17;;;;;;;3.08;2.83;;;22.40;70.80;;;;;;5055261;28;20100;-65
2022/04/27 10:52:52;;;;;;;3.95;3.65;;;22.10;72.00;;;;;;5055793;28;20036;-65
2022/04/27 10:55:37;;;;;;;3.50;3.10;;;21.10;74.40;;;;;;5055487;28;20048;-64
2022/04/27 10:58:29;;;;;;;4.30;3.10;;;21.20;74.20;;;;;;5055298;28;20542;-66
2022/04/27 11:00:58;;;;;;;4.18;3.70;;;20.90;74.60;;;;;;5054960;28;20041;-66
2022/04/27 11:03:28;;;;;;;3.72;3.28;;;21.80;74.10;;;;;;5055194;28;20021;-66
2022/04/27 11:05:58;;;;;;;3.58;3.28;;;21.40;72.90;;;;;;5053601;28;20083;-67
2022/04/27 11:08:27;;;;;;;4.00;3.65;;;20.10;76.40;;;;;;5055224;28;20470;-66
2022/04/27 11:10:55;;;;;;;4.65;3.30;;;19.10;79.90;;;;;;5054913;28;20028;-67
2022/04/27 11:13:27;;;;;;;7.28;3.40;;;18.40;82.80;;;;;;5054377;28;20100;-68
2022/04/27 11:15:53;;;;;;;4.07;3.50;;;18.40;84.30;;;;;;5054987;28;20025;-66
2022/04/27 11:18:19;;;;;;;6.90;3.90;;;18.30;83.40;;;;;;5053207;28;20104;-66
2022/04/27 11:20:44;;;;;;;;;;;18.20;83.90;;;;;;5054348;28;20473;-65
2022/04/27 11:23:23;;;;;;;7.88;3.33;;;18.00;85.20;;;;;;5054245;28;19912;-65
2022/04/27 11:25:52;;;;;;;4.03;3.63;;;17.60;85.30;;;;;;5053323;28;20025;-68
2022/04/27 11:28:18;;;;;;;5.75;3.40;;;17.60;86.10;;;;;;5054135;28;20113;-66
2022/04/27 11:30:44;;;;;;;6.82;3.50;;;17.50;87.50;;;;;;5054083;28;20496;-66
2022/04/27 11:33:11;;;;;;;;;;;17.70;87.70;;;;;;5053215;28;20025;-68
2022/04/27 11:35:49;;;;;;;5.70;3.50;;;17.80;85.60;;;;;;5053271;28;19911;-66
2022/04/27 11:38:32;;;;;;;4.20;3.45;;;17.90;86.00;;;;;;5054886;28;20350;-67
2022/04/27 11:40:57;;;;;;;4.63;3.58;;;18.10;86.10;;;;;;5054298;28;20031;-67
2022/04/27 11:43:27;;;;;;;4.13;3.53;;;17.90;85.90;;;;;;5053049;28;20025;-67
2022/04/27 11:45:55;;;;;;;5.13;3.70;;;17.10;88.50;;;;;;5055004;28;20017;-67
2022/04/27 11:48:22;;;;;;;4.53;3.00;;;16.80;90.40;;;;;;5055209;28;20032;-67
2022/04/27 11:50:48;;;;;;;4.63;3.67;;;16.70;90.80;;;;;;5054504;28;20059;-67
2022/04/27 11:53:15;;;;;;;4.13;3.30;;;16.70;90.90;;;;;;5053766;28;20032;-66
2022/04/27 11:55:43;;;;;;;6.22;3.65;;;16.90;90.20;;;;;;5054296;28;20499;-66
2022/04/27 11:58:09;;;;;;;4.45;3.35;;;17.20;90.60;;;;;;5052885;28;20037;-67
2022/04/27 12:00:35;;;;;;;3.63;3.15;;;17.60;90.30;;;;;;5053492;28;20133;-66
2022/04/27 12:03:06;;;;;;;4.10;3.33;;;17.90;90.00;;;;;;5053078;28;20036;-66
2022/04/27 12:05:38;;;;;;;3.35;2.88;;;18.00;88.30;;;;;;5054758;28;20104;-65
2022/04/27 12:08:09;;;;;;;6.35;3.17;;;18.00;86.70;;;;;;5052184;28;20024;-66
2022/04/27 12:10:45;;;;;;;4.15;2.72;;;17.90;86.90;;;;;;5052860;28;20138;-66
2022/04/27 12:13:12;;;;;;;4.03;3.30;;;18.10;87.40;;;;;;5052778;28;20017;-69
2022/04/27 12:15:41;;;;;;;2.88;2.30;;;18.20;87.90;;;;;;5052324;28;20465;-68
2022/04/27 12:18:13;;;;;;;3.72;2.72;;;18.20;84.40;;;;;;5052287;28;20047;-68
2022/04/27 12:20:40;;;;;;;3.50;2.90;;;17.90;82.70;;;;;;5053620;28;20025;-66
2022/04/27 12:23:31;;;;;;;4.22;2.83;;;17.80;83.40;;;;;;5053168;28;20025;-66
2022/04/27 12:26:00;;;;;;;4.10;2.92;;;17.60;87.00;;;;;;5054051;28;20389;-66
2022/04/27 12:28:34;;;;;;;3.63;2.78;;;17.70;87.60;;;;;;5052853;28;20045;-66
2022/04/27 12:31:04;;;;;;;3.92;2.88;;;17.80;87.40;;;;;;5053748;28;20496;-66
2022/04/27 12:33:45;;;;;;;3.22;2.40;;;18.00;86.80;;;;;;5053062;28;20033;-64
2022/04/27 12:38:58;;;;;;;6.22;3.80;;;17.80;88.20;;;;;;5053886;28;20108;-65
2022/04/27 12:41:39;;;;;;;3.50;3.03;;;17.80;88.30;;;;;;5052790;28;20021;-65
2022/04/27 12:44:11;;;;;;;2.85;2.53;;;17.80;86.50;;;;;;5052742;28;20017;-66
2022/04/27 12:46:53;;;;;;;3.95;2.60;;;17.70;87.80;;;;;;5056314;28;20027;-66
2022/04/27 12:49:25;;;;;;;3.00;2.65;;;17.80;88.30;;;;;;5054362;28;20064;-65
2022/04/27 12:51:51;;;;;;;3.03;2.70;;;17.70;87.10;;;;;;5052719;28;20445;-64
2022/04/27 12:54:16;;;;;;;3.35;2.78;;;17.80;87.10;;;;;;5052537;28;20032;-65
2022/04/27 12:56:42;;;;;;;3.38;2.80;;;17.90;86.60;;;;;;5052592;28;20159;-67
2022/04/27 12:59:09;;;;;;;;;;;17.70;86.00;;;;;;5052846;28;20028;-64
2022/04/27 13:01:35;;;;;;;3.63;3.25;;;17.70;85.90;;;;;;5052394;28;20019;-64
2022/04/27 13:04:01;;;;;;;4.38;3.30;;;17.60;87.20;;;;;;5053806;28;20045;-66
2022/04/27 13:06:29;;;;;;;3.63;2.65;;;17.70;87.20;;;;;;5053459;28;20025;-64
2022/04/27 13:08:56;;;;;;;8.93;3.63;;;17.90;86.80;;;;;;5052687;28;20020;-64
2022/04/27 13:14:06;;;;;;;4.50;3.22;;;18.00;85.60;;;;;;5052836;28;20397;-65
2022/04/27 13:16:32;;;;;;;3.55;2.75;;;18.00;86.20;;;;;;5052384;28;20025;-65
2022/04/27 13:18:57;;;;;;;3.45;2.85;;;17.90;86.20;;;;;;5051360;28;20029;-65
2022/04/27 13:21:23;;;;;;;6.00;3.92;;;17.90;87.00;;;;;;5051163;28;20025;-67
2022/04/27 13:23:48;;;;;;;3.80;2.90;;;17.80;85.80;;;;;;5052737;28;20029;-66
2022/04/27 13:26:14;;;;;;;3.03;2.70;;;17.70;86.20;;;;;;5052992;28;20025;-65
2022/04/27 13:28:40;;;;;;;4.35;3.03;;;17.70;86.50;;;;;;5053910;28;20321;-66
2022/04/27 13:31:08;;;;;;;4.65;2.90;;;17.80;85.00;;;;;;5053698;28;20029;-69
2022/04/27 13:33:34;;;;;;;3.10;2.80;;;17.90;86.10;;;;;;5054343;28;20032;-66
2022/04/27 13:36:00;;;;;;;3.13;2.75;;;18.10;86.40;;;;;;5054938;28;20377;-67
2022/04/27 13:38:28;;;;;;;3.10;2.80;;;18.20;85.20;;;;;;5054399;28;20040;-66
2022/04/27 13:40:54;;;;;;;4.40;3.00;;;18.20;86.20;;;;;;5053520;28;20082;-67
2022/04/27 13:43:20;;;;;;;6.50;3.05;;;18.30;85.30;;;;;;5053541;28;20092;-65
2022/04/27 13:45:46;;;;;;;3.17;2.88;;;18.30;84.90;;;;;;5054161;28;20025;-67
2022/04/27 13:48:12;;;;;;;3.90;3.50;;;18.00;84.10;;;;;;5053528;28;20523;-65
2022/04/27 13:50:39;;;;;;;5.10;3.20;;;18.00;84.30;;;;;;5056724;28;20068;-66
2022/04/27 13:53:05;;;;;;;5.65;4.00;;;17.90;84.80;;;;;;5056316;28;20017;-66
2022/04/27 13:55:32;;;;;;;7.35;3.40;;;17.80;86.20;;;;;;5057457;28;20402;-66
2022/04/27 13:57:58;;;;;;;4.30;3.00;;;17.80;85.30;;;;;;5056729;28;20039;-65
2022/04/27 14:00:24;;;;;;;;;;;17.80;85.60;;;;;;5057276;28;20021;-65
2022/04/27 14:02:50;;;;;;;4.18;3.30;;;17.80;86.80;;;;;;5056548;28;19917;-66
2022/04/27 14:05:16;;;;;;;3.45;3.00;;;17.90;86.10;;;;;;5055987;28;20104;-65
2022/04/27 14:07:44;;;;;;;5.32;2.67;;;17.80;85.80;;;;;;5055935;28;20064;-66
2022/04/27 14:10:11;;;;;;;3.85;3.05;;;17.80;85.20;;;;;;5056215;28;20017;-67
2022/04/27 14:15:22;;;;;;;5.60;2.70;;;18.30;85.40;;;;;;5055951;28;20036;-66
2022/04/27 14:20:32;;;;;;;4.53;2.90;;;18.60;85.90;;;;;;5056001;28;20107;-65
2022/04/27 14:22:58;;;;;;;3.97;3.30;;;18.70;84.90;;;;;;5053965;28;20065;-66
2022/04/27 14:25:24;;;;;;;4.10;3.30;;;18.40;84.00;;;;;;5055317;28;20029;-66
2022/04/27 14:27:49;;;;;;;4.10;3.17;;;18.30;82.60;;;;;;5055256;28;20029;-65
2022/04/27 14:30:16;;;;;;;3.90;2.92;;;18.00;84.30;;;;;;5054017;28;20040;-65
2022/04/27 14:32:42;;;;;;;4.80;3.47;;;18.10;86.60;;;;;;5056275;28;20029;-66
2022/04/27 14:35:07;;;;;;;4.25;3.38;;;18.00;86.30;;;;;;5055765;28;20021;-66
2022/04/27 14:37:34;;;;;;;3.25;2.95;;;18.00;87.00;;;;;;5056138;28;20083;-66
2022/04/27 14:39:59;;;;;;;4.90;3.45;;;18.00;87.70;;;;;;5055801;28;20028;-66
2022/04/27 14:42:25;;;;;;;3.80;3.30;;;17.60;87.30;;;;;;5055522;28;20033;-66
2022/04/27 14:44:50;;;;;;;3.53;3.13;;;17.30;86.50;;;;;;5055679;28;20025;-66
2022/04/27 14:47:16;;;;;;;3.70;3.00;;;17.40;87.20;;;;;;5055380;28;20032;-66
2022/04/27 14:49:42;;;;;;;5.35;3.45;;;17.50;86.70;;;;;;5053900;28;20760;-67
2022/04/27 14:52:07;;;;;;;3.88;3.00;;;17.60;87.80;;;;;;5054765;28;20036;-65
2022/04/27 14:54:33;;;;;;;5.03;3.33;;;17.70;87.10;;;;;;5054991;28;20493;-65
2022/04/27 14:56:59;;;;;;;3.85;3.17;;;17.60;86.50;;;;;;5055031;28;20032;-64
2022/04/27 14:59:24;;;;;;;3.28;2.97;;;17.40;87.00;;;;;;5056657;28;20435;-65
2022/04/27 15:01:50;;;;;;;3.50;3.00;;;17.40;88.10;;;;;;5055003;28;20037;-66
2022/04/27 15:04:15;;;;;;;5.18;3.25;;;17.50;87.20;;;;;;5054571;28;20270;-65
2022/04/27 15:06:41;;;;;;;3.70;3.03;;;17.60;86.40;;;;;;5054568;28;20036;-65
2022/04/27 15:09:07;;;;;;;3.65;3.25;;;17.80;86.40;;;;;;5054465;28;20017;-65
2022/04/27 15:11:32;;;;;;;4.07;3.33;;;17.90;86.60;;;;;;5054769;28;20477;-65
2022/04/27 15:13:58;;;;;;;3.90;3.50;;;17.90;86.60;;;;;;5059293;28;20029;-65
2022/04/27 15:16:24;;;;;;;6.70;3.10;;;17.90;86.70;;;;;;5057706;28;20069;-66
2022/04/27 15:18:50;;;;;;;4.65;3.20;;;18.00;86.00;;;;;;5054422;28;20085;-66
2022/04/27 15:24:00;;;;;;;5.03;3.45;;;17.80;86.50;;;;;;5055691;28;20028;-65
2022/04/27 15:29:10;;;;;;;4.07;2.95;;;17.90;86.40;;;;;;5054160;28;20090;-66
2022/04/27 15:31:36;;;;;;;4.97;2.95;;;17.70;85.80;;;;;;5054081;28;20082;-65
2022/04/27 15:34:02;;;;;;;4.10;3.33;;;17.60;86.70;;;;;;5052669;28;20024;-65
2022/04/27 15:36:27;;;;;;;4.05;3.53;;;17.50;87.20;;;;;;5053874;28;20035;-65
2022/04/27 15:38:53;;;;;;;6.47;3.60;;;17.40;88.00;;;;;;5053921;28;20025;-65
2022/04/27 15:41:19;;;;;;;4.60;3.22;;;17.30;88.20;;;;;;5054111;28;20032;-65
2022/04/27 15:43:44;;;;;;;3.67;3.13;;;17.30;88.50;;;;;;5053736;28;20021;-66
2022/04/27 15:46:10;;;;;;;4.25;3.25;;;17.40;87.70;;;;;;5053936;28;20023;-66
2022/04/27 15:48:36;;;;;;;6.97;3.72;;;17.60;88.40;;;;;;5053967;28;20033;-66
2022/04/27 15:51:02;;;;;;;3.75;3.30;;;17.60;87.10;;;;;;5053568;28;20075;-65
2022/04/27 15:53:28;;;;;;;;;;;17.50;87.10;;;;;;5054150;28;20044;-65
2022/04/27 15:55:54;;;;;;;4.28;3.20;;;17.50;87.30;;;;;;5053848;28;19904;-65
2022/04/27 15:58:20;;;;;;;;;;;17.30;86.10;;;;;;5054040;28;20575;-65
2022/04/27 16:00:47;;;;;;;4.72;3.40;;;17.20;86.40;;;;;;5055736;28;19995;-66
2022/04/27 16:03:13;;;;;;;3.88;3.25;;;17.10;87.40;;;;;;5055416;28;20381;-66
2022/04/27 16:05:39;;;;;;;8.18;3.70;;;17.00;88.20;;;;;;5055308;28;20106;-66
2022/04/27 16:08:05;;;;;;;5.80;3.50;;;17.00;87.70;;;;;;5054897;28;20097;-66
2022/04/27 16:10:31;;;;;;;6.90;5.63;;;17.00;88.30;;;;;;5053744;28;20025;-66
2022/04/27 16:12:58;;;;;;;5.22;3.42;;;17.00;88.70;;;;;;5053752;28;20021;-64
2022/04/27 16:15:24;;;;;;;6.18;3.47;;;17.10;89.00;;;;;;5053328;28;20040;-67
2022/04/27 16:17:49;;;;;;;5.22;3.40;;;17.10;89.30;;;;;;5053398;28;20033;-66
2022/04/27 16:20:15;;;;;;;4.28;3.42;;;17.10;89.40;;;;;;5051656;28;20036;-64
2022/04/27 16:25:24;;;;;;;3.55;3.13;;;17.10;87.70;;;;;;5053367;28;20032;-66
2022/04/27 16:27:51;;;;;;;3.60;3.10;;;17.10;88.00;;;;;;5052948;28;20083;-65
2022/04/27 16:30:16;;;;;;;4.50;3.15;;;17.10;87.40;;;;;;5053179;28;20263;-66
2022/04/27 16:32:42;;;;;;;4.18;3.70;;;17.10;87.10;;;;;;5052803;28;20094;-66
2022/04/27 16:35:09;;;;;;;4.25;3.50;;;17.00;88.00;;;;;;5053049;28;20025;-65
2022/04/27 16:37:35;;;;;;;4.35;3.40;;;16.90;88.30;;;;;;5052943;28;20071;-66
2022/04/27 16:40:00;;;;;;;4.90;3.65;;;16.80;88.80;;;;;;5052738;28;20374;-65
2022/04/27 16:42:26;;;;;;;6.43;3.40;;;16.80;89.00;;;;;;5052807;28;20393;-66
2022/04/27 16:44:52;;;;;;;4.88;3.40;;;16.80;88.90;;;;;;5053286;28;20096;-67
2022/04/27 16:47:17;;;;;;;6.45;4.43;;;16.80;89.90;;;;;;5052623;28;20393;-65
2022/04/27 16:49:44;;;;;;;4.57;3.70;;;16.80;89.80;;;;;;5052833;28;20083;-65
2022/04/27 16:52:10;;;;;;;4.55;3.53;;;16.80;90.00;;;;;;5052415;28;20021;-65
2022/04/27 16:54:37;;;;;;;5.30;3.63;;;16.80;88.30;;;;;;5052925;28;20441;-64
2022/04/27 16:57:04;;;;;;;5.10;3.42;;;16.80;87.20;;;;;;5051280;28;20044;-65
2022/04/27 16:59:30;;;;;;;4.15;3.15;;;16.80;87.30;;;;;;5051322;28;20025;-65
2022/04/27 17:01:56;;;;;;;4.63;3.38;;;16.80;86.30;;;;;;5050990;28;20029;-65
2022/04/27 17:04:21;;;;;;;5.10;3.28;;;16.70;86.40;;;;;;5052773;28;20021;-64
2022/04/27 17:06:47;;;;;;;5.03;3.50;;;16.70;86.00;;;;;;5053166;28;20461;-65
2022/04/27 17:09:13;;;;;;;4.50;3.40;;;16.70;85.90;;;;;;5052710;28;20251;-64
2022/04/27 17:11:38;;;;;;;7.55;3.63;;;16.70;85.70;;;;;;5052876;28;20389;-65
2022/04/27 17:14:05;;;;;;;5.10;3.55;;;16.60;86.10;;;;;;5052743;28;20021;-66
2022/04/27 17:16:31;;;;;;;4.18;3.47;;;16.60;86.80;;;;;;5051213;28;20033;-65
2022/04/27 17:18:58;;;;;;;5.22;3.70;;;16.60;86.50;;;;;;5052586;28;20036;-68
2022/04/27 17:21:23;;;;;;;4.15;3.25;;;16.60;87.10;;;;;;5052592;28;20390;-66
2022/04/27 17:23:49;;;;;;;5.00;3.83;;;16.50;87.20;;;;;;5055277;28;20017;-67
2022/04/27 17:29:00;;;;;;;4.70;3.70;;;16.50;87.80;;;;;;5057002;28;20090;-64
2022/04/27 17:31:26;;;;;;;6.97;4.50;;;16.40;88.40;;;;;;5056666;28;20025;-66
2022/04/27 17:33:52;;;;;;;5.50;4.22;;;16.40;88.90;;;;;;5056358;28;20041;-65
2022/04/27 17:36:18;;;;;;;;;;;16.40;89.20;;;;;;5056881;28;20470;-67
2022/04/27 17:38:43;;;;;;;6.28;3.70;;;16.40;89.10;;;;;;5056407;28;19956;-68
2022/04/27 17:41:10;;;;;;;7.45;3.95;;;16.30;89.30;;;;;;5056136;28;20021;-69
2022/04/27 17:43:37;;;;;;;3.95;3.50;;;16.30;89.50;;;;;;5054826;28;20183;-69
2022/04/27 17:46:04;;;;;;;5.60;3.30;;;16.30;89.30;;;;;;5056057;28;20017;-72
2022/04/27 17:48:29;;;;;;;;;;;16.30;87.80;;;;;;5055692;28;20056;-71
2022/04/27 17:50:55;;;;;;;3.22;2.92;;;16.20;87.10;;;;;;5056331;28;20271;-70
2022/04/27 17:53:21;;;;;;;4.13;3.57;;;16.20;87.80;;;;;;5056147;28;20036;-70
2022/04/27 17:55:47;;;;;;;4.75;3.50;;;16.20;88.90;;;;;;5054862;28;20264;-70
2022/04/27 17:58:13;;;;;;;4.28;3.55;;;16.10;89.10;;;;;;5056042;28;20508;-70
2022/04/27 18:00:39;;;;;;;5.63;3.53;;;16.10;89.70;;;;;;5054502;28;20132;-71
2022/04/27 18:03:05;;;;;;;4.78;3.35;;;16.00;90.10;;;;;;5056184;28;20105;-71
2022/04/27 18:05:31;;;;;;;6.40;3.20;;;16.00;90.40;;;;;;5056497;28;20466;-68
2022/04/27 18:07:56;;;;;;;5.28;3.47;;;15.90;90.60;;;;;;5056533;28;20053;-68
2022/04/27 18:10:23;;;;;;;7.57;3.53;;;15.90;90.90;;;;;;5054968;28;20362;-68
2022/04/27 18:12:50;;;;;;;;;;;15.80;91.20;;;;;;5055726;28;20060;-67
2022/04/27 18:15:16;;;;;;;4.95;3.65;;;15.70;91.30;;;;;;5056158;28;20004;-67
2022/04/27 18:17:42;;;;;;;4.03;3.22;;;15.70;91.60;;;;;;5055872;28;20079;-67
2022/04/27 18:20:11;;;;;;;5.60;3.78;;;15.60;91.70;;;;;;5054350;28;20033;-67
2022/04/27 18:22:37;;;;;;;5.00;3.05;;;15.60;92.00;;;;;;5055631;28;20037;-67
2022/04/27 18:25:03;;;;;;;4.50;3.15;;;15.50;92.10;;;;;;5055910;28;20040;-68
2022/04/27 18:27:30;;;;;;;5.30;3.30;;;15.50;92.30;;;;;;5054586;28;20390;-70
2022/04/27 18:29:55;;;;;;;;;;;15.40;92.60;;;;;;5055553;28;20021;-69
2022/04/27 18:32:21;;;;;;;5.63;3.10;;;15.40;92.80;;;;;;5055663;28;19905;-68
2022/04/27 18:34:47;;;;;;;5.87;3.00;;;15.30;93.00;;;;;;5055151;28;20063;-68
2022/04/27 18:37:13;;;;;;;4.63;3.88;;;15.20;93.30;;;;;;5053999;28;20683;-67
2022/04/27 18:39:39;;;;;;;4.22;3.30;;;15.20;93.60;;;;;;5055496;28;20040;-67
2022/04/27 18:42:05;;;;;;;5.82;3.38;;;15.10;93.80;;;;;;5055225;28;20025;-69
2022/04/27 18:50:07;;;;;;;4.45;3.40;;;14.90;94.80;;;;;;5058942;28;20040;-68
2022/04/27 18:52:35;;;;;;;5.93;3.72;;;14.80;94.90;;;;;;5064188;28;20059;-68
2022/04/27 18:55:02;;;;;;;6.43;3.40;;;14.80;95.20;;;;;;5064028;28;20417;-69
2022/04/27 18:57:28;;;;;;;3.80;3.40;;;14.70;95.40;;;;;;5064318;28;20089;-69
2022/04/27 18:59:55;;;;;;;4.85;3.63;;;14.70;95.80;;;;;;5062282;28;20052;-69
2022/04/27 19:02:23;;;;;;;5.35;3.80;;;14.60;96.10;;;;;;5057991;28;20112;-68
2022/04/27 19:04:50;;;;;;;7.47;3.80;;;14.60;96.90;;;;;;5056001;28;20025;-68
2022/04/27 19:07:17;;;;;;;5.25;4.07;;;14.50;97.00;;;;;;5057177;28;20405;-68
2022/04/27 19:09:43;;;;;;;6.88;4.20;;;14.50;97.30;;;;;;5056577;28;20114;-68
2022/04/27 19:12:10;;;;;;;7.75;4.43;;;14.40;97.70;;;;;;5055172;28;20033;-67
2022/04/27 19:14:36;;;;;;;7.60;4.78;;;14.40;98.40;;;;;;5053528;28;20509;-67
2022/04/27 19:17:02;;;;;;;7.47;4.75;;;14.40;98.20;;;;;;5053554;28;20532;-69
2022/04/27 19:19:33;;;;;;;7.00;4.85;;;14.40;98.40;;;;;;5054048;28;20037;-68
2022/04/27 19:22:00;;;;;;;6.10;3.63;;;14.40;98.70;;;;;;5053426;28;20028;-68
2022/04/27 19:24:25;;;;;;;;;;;14.30;98.90;;;;;;5055242;28;20017;-68
2022/04/27 19:26:51;;;;;;;5.60;4.10;;;14.30;99.20;;;;;;5054914;28;20354;-68
2022/04/27 19:29:18;;;;;;;5.57;3.88;;;14.20;99.50;;;;;;5053308;28;20021;-68
2022/04/27 19:31:46;;;;;;;4.90;3.90;;;14.20;99.80;;;;;;5053398;28;20032;-69
2022/04/27 19:34:12;;;;;;;5.15;3.50;;;14.10;99.90;;;;;;5054637;28;20067;-68
2022/04/27 19:36:38;;;;;;;6.22;4.00;;;14.00;99.90;;;;;;5054879;28;20021;-68
2022/04/27 19:39:04;;;;;;;7.57;4.15;;;14.00;99.90;;;;;;5054850;28;20029;-68
2022/04/27 19:41:30;;;;;;;7.03;4.40;;;13.90;99.90;;;;;;5053365;28;20531;-68
2022/04/27 19:43:57;;;;;;;8.30;5.22;;;13.90;99.90;;;;;;5053656;28;20490;-68
2022/04/27 19:46:29;;;;;;;8.13;5.20;;;13.90;99.90;;;;;;5053743;28;20063;-68
2022/04/27 19:48:56;;;;;;;8.52;5.35;;;13.80;99.90;;;;;;5054432;28;20075;-68
2022/04/27 19:51:22;;;;;;;8.63;5.30;;;13.80;99.90;;;;;;5054550;28;20025;-68
2022/04/27 19:53:49;;;;;;;8.50;5.50;;;13.80;99.90;;;;;;5052847;28;20039;-68
2022/04/27 19:56:17;;;;;;;6.78;5.20;;;13.80;99.90;;;;;;5054308;28;20029;-68
2022/04/27 19:58:43;;;;;;;9.77;5.60;;;13.70;99.90;;;;;;5054672;28;20355;-68
2022/04/27 20:01:09;;;;;;;8.07;5.20;;;13.70;99.90;;;;;;5055360;28;20071;-67
2022/04/27 20:03:35;;;;;;;7.85;4.78;;;13.70;99.90;;;;;;5054209;28;20033;-66
2022/04/27 20:06:03;;;;;;;6.47;4.63;;;13.70;99.90;;;;;;5054009;28;20122;-68
2022/04/27 20:08:29;;;;;;;8.18;4.70;;;13.70;99.90;;;;;;5054039;28;20263;-68
2022/04/27 20:10:55;;;;;;;7.47;4.88;;;13.70;99.90;;;;;;5052837;28;20017;-67
2022/04/27 20:13:21;;;;;;;7.45;4.63;;;13.70;99.90;;;;;;5054414;28;20519;-68
2022/04/27 20:15:46;;;;;;;7.55;4.97;;;13.70;99.90;;;;;;5052717;28;20025;-68
2022/04/27 20:18:12;;;;;;;7.10;4.77;;;13.60;99.90;;;;;;5054082;28;20075;-68
2022/04/27 20:20:38;;;;;;;7.90;4.32;;;13.60;99.90;;;;;;5053768;28;20516;-68
2022/04/27 20:23:05;;;;;;;6.18;4.35;;;13.50;99.90;;;;;;5053469;28;20128;-68
2022/04/27 20:25:34;;;;;;;7.57;4.78;;;13.50;99.90;;;;;;5052889;28;20436;-67
2022/04/27 20:28:10;;;;;;;6.43;4.10;;;13.40;99.90;;;;;;5052412;28;20021;-68
2022/04/27 20:30:44;;;;;;;5.72;4.68;;;13.40;99.90;;;;;;5053542;28;20071;-68
2022/04/27 20:33:09;;;;;;;5.13;4.32;;;13.30;99.90;;;;;;5053692;28;20082;-68
2022/04/27 20:35:36;;;;;;;6.13;4.53;;;13.20;99.90;;;;;;5053490;28;20488;-67
2022/04/27 20:38:02;;;;;;;6.50;4.70;;;13.20;99.90;;;;;;5053268;28;20263;-66
2022/04/27 20:40:28;;;;;;;5.93;4.93;;;13.10;99.90;;;;;;5053071;28;20037;-67
2022/04/27 20:42:53;;;;;;;7.90;4.50;;;13.10;99.90;;;;;;5052960;28;20035;-67
2022/04/27 20:45:19;;;;;;;8.52;4.90;;;13.00;99.90;;;;;;5051881;28;20025;-69
2022/04/27 20:47:45;;;;;;;10.10;4.73;;;13.00;99.90;;;;;;5052053;28;20025;-67
2022/04/27 20:50:12;;;;;;;6.40;4.73;;;12.90;99.90;;;;;;5053466;28;20025;-66
2022/04/27 20:52:38;;;;;;;6.03;4.72;;;12.90;99.90;;;;;;5051931;28;20021;-66
2022/04/27 20:55:04;;;;;;;8.98;4.95;;;12.80;99.90;;;;;;5053942;28;20040;-67
2022/04/27 20:57:30;;;;;;;5.82;4.85;;;12.80;99.90;;;;;;5052705;28;20531;-68
2022/04/27 20:59:57;;;;;;;6.78;4.63;;;12.70;99.90;;;;;;5051606;28;20029;-67
2022/04/27 21:02:23;;;;;;;6.82;5.10;;;12.70;99.90;;;;;;5052633;28;20033;-67
2022/04/27 21:04:49;;;;;;;;;;;12.70;99.90;;;;;;5053239;28;20473;-68
2022/04/27 21:07:14;;;;;;;5.90;4.40;;;12.60;99.90;;;;;;5053001;28;19904;-67
2022/04/27 21:09:40;;;;;;;5.00;4.38;;;12.50;99.90;;;;;;5052796;28;20437;-67
2022/04/27 21:12:07;;;;;;;7.13;4.43;;;12.50;99.90;;;;;;5052884;28;20028;-66
2022/04/27 21:14:34;;;;;;;5.30;4.53;;;12.50;99.90;;;;;;5051326;28;20025;-66
2022/04/27 21:17:00;;;;;;;9.10;5.05;;;12.40;99.90;;;;;;5052839;28;20025;-66
2022/04/27 21:19:26;;;;;;;6.83;4.40;;;12.30;99.90;;;;;;5053307;28;20052;-66
2022/04/27 21:21:51;;;;;;;7.50;4.77;;;12.20;99.90;;;;;;5051721;28;20271;-67
2022/04/27 21:24:18;;;;;;;6.80;5.03;;;12.10;99.90;;;;;;5052548;28;20255;-66
2022/04/27 21:26:48;;;;;;;6.88;5.45;;;12.00;99.90;;;;;;5052494;28;20018;-66
2022/04/27 21:29:13;;;;;;;7.55;5.38;;;12.00;99.90;;;;;;5052654;28;20017;-66
2022/04/27 21:31:39;;;;;;;6.43;5.00;;;12.00;99.90;;;;;;5052427;28;20338;-66
2022/04/27 21:34:04;;;;;;;8.23;5.50;;;11.90;99.90;;;;;;5052360;28;20465;-66
2022/04/27 21:36:30;;;;;;;7.67;4.90;;;11.90;99.90;;;;;;5052304;28;20032;-66
2022/04/27 21:38:57;;;;;;;7.43;5.22;;;11.90;99.90;;;;;;5052987;28;20024;-67
2022/04/27 21:41:23;;;;;;;7.45;5.18;;;11.90;99.90;;;;;;5052332;28;20319;-66
2022/04/27 21:43:48;;;;;;;7.05;5.15;;;11.90;99.90;;;;;;5050910;28;20132;-67
2022/04/27 21:46:14;;;;;;;7.70;5.00;;;11.90;99.90;;;;;;5051159;28;20505;-67
2022/04/27 21:48:40;;;;;;;11.10;6.43;;;11.90;99.90;;;;;;5051287;28;20478;-67
2022/04/27 21:51:06;;;;;;;9.80;5.47;;;11.80;99.90;;;;;;5052565;28;20067;-67
2022/04/27 21:53:32;;;;;;;8.13;4.70;;;11.80;99.90;;;;;;5052602;28;20430;-67
2022/04/27 21:55:58;;;;;;;;;;;11.70;99.90;;;;;;5052850;28;20044;-67
2022/04/27 21:58:23;;;;;;;7.40;5.25;;;11.60;99.90;;;;;;5052237;28;20239;-67
2022/04/27 22:01:06;;;;;;;9.40;5.33;;;11.50;99.90;;;;;;5051934;28;20029;-67
2022/04/27 22:06:37;;;;;;;7.57;5.40;;;11.40;99.90;;;;;;5052365;28;20036;-66
2022/04/27 22:09:05;;;;;;;7.25;5.10;;;11.30;99.90;;;;;;5053620;28;20454;-66
2022/04/27 22:11:31;;;;;;;7.55;5.30;;;11.30;99.90;;;;;;5054660;28;20104;-66
2022/04/27 22:13:58;;;;;;;7.15;5.38;;;11.30;99.90;;;;;;5054996;28;20032;-65
2022/04/27 22:16:25;;;;;;;8.23;6.13;;;11.30;99.90;;;;;;5054922;28;20051;-65
2022/04/27 22:18:51;;;;;;;7.90;5.80;;;11.30;99.90;;;;;;5056130;28;20021;-66
2022/04/27 22:21:17;;;;;;;9.10;5.47;;;11.30;99.90;;;;;;5056668;28;20108;-67
2022/04/27 22:23:43;;;;;;;5.45;4.80;;;11.30;99.90;;;;;;5056084;28;20025;-70
2022/04/27 22:26:10;;;;;;;8.05;5.85;;;11.30;99.90;;;;;;5054684;28;20021;-66
2022/04/27 22:28:37;;;;;;;8.05;6.10;;;11.20;99.90;;;;;;5055905;28;20033;-66